createdAt,value
2023-01-10T00:00:20.352Z,0.00
2023-01-10T00:05:20.256Z,0.00
2023-01-10T00:10:20.326Z,0.00
2023-01-10T00:15:20.137Z,0.00
2023-01-10T00:20:20.128Z,0.00
2023-01-10T00:25:20.051Z,0.00
2023-01-10T00:30:19.965Z,0.00
2023-01-10T00:35:19.930Z,0.00
2023-01-10T00:40:19.932Z,0.00
2023-01-10T00:45:19.831Z,0.00
2023-01-10T00:50:19.949Z,0.00
2023-01-10T00:55:19.905Z,0.00
2023-01-10T01:00:19.645Z,0.00
2023-01-10T01:05:20.782Z,0.00
2023-01-10T01:10:19.546Z,0.00
2023-01-10T01:15:19.628Z,0.00
2023-01-10T01:20:19.437Z,0.00
2023-01-10T01:25:19.406Z,0.00
2023-01-10T01:30:19.306Z,0.00
2023-01-10T01:35:19.259Z,0.00
2023-01-10T01:40:19.220Z,0.00
2023-01-10T01:45:19.157Z,0.00
2023-01-10T01:50:19.194Z,0.00
2023-01-10T01:55:19.052Z,0.00
2023-01-10T02:00:19.018Z,0.00
2023-01-10T02:05:19.065Z,0.00
2023-01-10T02:10:18.905Z,0.00
2023-01-10T02:15:18.851Z,0.00
2023-01-10T02:20:18.808Z,0.00
2023-01-10T02:25:18.724Z,0.00
2023-01-10T02:30:18.682Z,0.00
2023-01-10T02:35:18.754Z,0.00
2023-01-10T02:40:18.624Z,0.00
2023-01-10T02:45:18.568Z,0.00
2023-01-10T02:50:18.441Z,0.00
2023-01-10T02:55:18.410Z,0.00
2023-01-10T03:00:18.345Z,0.00
2023-01-10T03:05:18.282Z,0.00
2023-01-10T03:10:18.223Z,0.00
2023-01-10T03:15:18.192Z,0.00
2023-01-10T03:20:18.115Z,0.00
2023-01-10T03:25:18.181Z,0.00
2023-01-10T03:30:18.056Z,0.00
2023-01-10T03:35:18.137Z,0.00
2023-01-10T03:40:17.920Z,0.00
2023-01-10T03:45:17.850Z,0.00
2023-01-10T03:50:17.963Z,0.00
2023-01-10T03:55:17.771Z,0.00
2023-01-10T04:00:17.707Z,0.00
2023-01-10T04:05:17.747Z,0.00
2023-01-10T04:10:17.614Z,0.00
2023-01-10T04:15:21.043Z,0.00
2023-01-10T04:20:26.828Z,0.00
2023-01-10T04:25:17.382Z,0.00
2023-01-10T04:30:17.561Z,0.00
2023-01-10T04:35:18.449Z,0.00
2023-01-10T04:40:18.401Z,0.00
2023-01-10T04:45:17.233Z,0.00
2023-01-10T04:50:17.139Z,0.00
2023-01-10T04:55:17.288Z,0.00
2023-01-10T05:00:17.059Z,0.00
2023-01-10T05:05:17.211Z,0.00
2023-01-10T05:10:16.957Z,0.00
2023-01-10T05:15:17.073Z,0.00
2023-01-10T05:20:17.611Z,0.00
2023-01-10T05:25:16.963Z,0.00
2023-01-10T05:30:17.460Z,0.00
2023-01-10T05:35:16.765Z,0.00
2023-01-10T05:40:16.798Z,0.00
2023-01-10T05:45:17.768Z,0.00
2023-01-10T05:50:18.874Z,0.00
2023-01-10T05:55:17.160Z,0.00
2023-01-10T06:00:19.541Z,0.00
2023-01-10T06:05:19.005Z,0.00
2023-01-10T06:10:16.244Z,0.00
2023-01-10T06:15:16.451Z,0.00
2023-01-10T06:20:16.335Z,0.00
2023-01-10T06:25:16.154Z,0.00
2023-01-10T06:30:16.305Z,0.00
2023-01-10T06:35:15.989Z,0.00
2023-01-10T06:40:15.932Z,0.00
2023-01-10T06:45:15.848Z,0.00
2023-01-10T06:50:16.974Z,0.00
2023-01-10T06:55:15.904Z,0.00
2023-01-10T07:00:15.723Z,4.00
2023-01-10T07:05:15.730Z,4.00
2023-01-10T07:10:15.789Z,12.00
2023-01-10T07:15:15.696Z,28.00
2023-01-10T07:20:15.482Z,48.00
2023-01-10T07:25:15.397Z,76.00
2023-01-10T07:30:15.349Z,144.00
2023-01-10T07:35:15.294Z,236.00
2023-01-10T07:40:15.392Z,316.00
2023-01-10T07:45:15.219Z,492.00
2023-01-10T07:50:16.664Z,652.00
2023-01-10T07:55:15.147Z,876.00
2023-01-10T08:00:16.747Z,1072.00
2023-01-10T08:05:15.049Z,1440.00
2023-01-10T08:10:16.039Z,1688.00
2023-01-10T08:15:14.881Z,1680.00
2023-01-10T08:20:14.832Z,1952.00
2023-01-10T08:25:14.869Z,2408.00
2023-01-10T08:30:14.863Z,2016.00
2023-01-10T08:35:21.750Z,2116.00
2023-01-10T08:40:14.685Z,2716.00
2023-01-10T08:45:14.533Z,3852.00
2023-01-10T08:50:14.507Z,3676.00
2023-01-10T08:55:14.446Z,3184.00
2023-01-10T09:00:14.543Z,4480.00
2023-01-10T09:05:26.400Z,3452.00
2023-01-10T09:10:15.320Z,3956.00
2023-01-10T09:15:14.221Z,4364.00
2023-01-10T09:20:14.160Z,4532.00
2023-01-10T09:25:14.112Z,5868.00
2023-01-10T09:30:14.074Z,6344.00
2023-01-10T09:35:13.992Z,6032.00
2023-01-10T09:40:14.034Z,7524.00
2023-01-10T09:45:13.981Z,7008.00
2023-01-10T09:50:13.944Z,10388.00
2023-01-10T09:55:13.779Z,10128.00
2023-01-10T10:00:13.719Z,8780.00
2023-01-10T10:05:13.694Z,8404.00
2023-01-10T10:10:13.619Z,11972.00
2023-01-10T10:15:15.677Z,8784.00
2023-01-10T10:20:13.685Z,12988.00
2023-01-10T10:25:13.624Z,11960.00
2023-01-10T10:30:14.571Z,13148.00
2023-01-10T10:35:15.441Z,9560.00
2023-01-10T10:40:13.273Z,10856.00
2023-01-10T10:45:13.245Z,9804.00
2023-01-10T10:50:13.170Z,10276.00
2023-01-10T10:55:13.242Z,10500.00
2023-01-10T11:00:13.065Z,10668.00
2023-01-10T11:05:12.990Z,11076.00
2023-01-10T11:10:13.046Z,11004.00
2023-01-10T11:15:12.890Z,10784.00
2023-01-10T11:20:12.826Z,10428.00
2023-01-10T11:25:12.769Z,10220.00
2023-01-10T11:30:12.869Z,10344.00
2023-01-10T11:35:12.622Z,10104.00
2023-01-10T11:40:12.601Z,9956.00
2023-01-10T11:45:12.631Z,9820.00
2023-01-10T11:50:12.550Z,9584.00
2023-01-10T11:55:12.508Z,9604.00
2023-01-10T12:00:12.461Z,9068.00
2023-01-10T12:05:12.397Z,8508.00
2023-01-10T12:10:12.234Z,7812.00
2023-01-10T12:15:12.165Z,7556.00
2023-01-10T12:20:12.119Z,7464.00
2023-01-10T12:25:12.143Z,7272.00
2023-01-10T12:30:14.016Z,7028.00
2023-01-10T12:35:12.036Z,6876.00
2023-01-10T12:40:14.044Z,7020.00
2023-01-10T12:45:11.905Z,7820.00
2023-01-10T12:50:11.821Z,8284.00
2023-01-10T12:55:11.731Z,8500.00
2023-01-10T13:00:11.673Z,8172.00
2023-01-10T13:05:11.646Z,7256.00
2023-01-10T13:10:13.719Z,6572.00
2023-01-10T13:15:11.531Z,6164.00
2023-01-10T13:20:11.494Z,6200.00
2023-01-10T13:25:11.402Z,6192.00
2023-01-10T13:30:11.361Z,5976.00
2023-01-10T13:35:11.319Z,5700.00
2023-01-10T13:40:11.227Z,5368.00
2023-01-10T13:45:11.272Z,4800.00
2023-01-10T13:50:11.217Z,4284.00
2023-01-10T13:55:15.578Z,3444.00
2023-01-10T14:00:11.053Z,2748.00
2023-01-10T14:05:10.954Z,2664.00
2023-01-10T14:10:10.897Z,2720.00
2023-01-10T14:15:10.930Z,2396.00
2023-01-10T14:20:13.010Z,2024.00
2023-01-10T14:25:10.939Z,1832.00
2023-01-10T14:30:16.158Z,1780.00
2023-01-10T14:35:12.702Z,1572.00
2023-01-10T14:40:11.635Z,1204.00
2023-01-10T14:45:10.737Z,1060.00
2023-01-10T14:50:10.449Z,1108.00
2023-01-10T14:55:10.427Z,1024.00
2023-01-10T15:00:10.385Z,916.00
2023-01-10T15:05:10.454Z,784.00
2023-01-10T15:10:10.267Z,624.00
2023-01-10T15:15:10.223Z,456.00
2023-01-10T15:20:11.250Z,332.00
2023-01-10T15:25:10.227Z,248.00
2023-01-10T15:30:10.015Z,160.00
2023-01-10T15:35:10.262Z,136.00
2023-01-10T15:40:09.932Z,108.00
2023-01-10T15:45:09.942Z,80.00
2023-01-10T15:50:09.904Z,56.00
2023-01-10T15:55:09.814Z,36.00
2023-01-10T16:00:09.738Z,20.00
2023-01-10T16:05:09.666Z,12.00
2023-01-10T16:10:09.582Z,4.00
2023-01-10T16:15:09.578Z,4.00
2023-01-10T16:20:09.468Z,0.00
2023-01-10T16:25:09.419Z,0.00
2023-01-10T16:30:09.413Z,0.00
2023-01-10T16:35:09.493Z,0.00
2023-01-10T16:40:09.261Z,0.00
2023-01-10T16:45:09.204Z,0.00
2023-01-10T16:50:09.172Z,0.00
2023-01-10T16:55:09.133Z,0.00
2023-01-10T17:00:10.081Z,0.00
2023-01-10T17:05:09.064Z,0.00
2023-01-10T17:10:09.019Z,0.00
2023-01-10T17:15:08.961Z,0.00
2023-01-10T17:20:08.913Z,0.00
2023-01-10T17:25:08.865Z,0.00
2023-01-10T17:30:08.695Z,0.00
2023-01-10T17:35:08.709Z,0.00
2023-01-10T17:40:08.613Z,0.00
2023-01-10T17:45:08.604Z,0.00
2023-01-10T17:50:08.478Z,0.00
2023-01-10T17:55:08.456Z,0.00
2023-01-10T18:00:08.395Z,0.00
2023-01-10T18:05:08.306Z,0.00
2023-01-10T18:10:08.253Z,0.00
2023-01-10T18:15:08.252Z,0.00
2023-01-10T18:20:08.161Z,0.00
2023-01-10T18:25:08.134Z,0.00
2023-01-10T18:30:08.037Z,0.00
2023-01-10T18:35:08.040Z,0.00
2023-01-10T18:40:08.018Z,0.00
2023-01-10T18:45:08.001Z,0.00
2023-01-10T18:50:07.829Z,0.00
2023-01-10T18:55:07.773Z,0.00
2023-01-10T19:00:07.752Z,0.00
2023-01-10T19:05:07.672Z,0.00
2023-01-10T19:10:07.793Z,0.00
2023-01-10T19:15:07.606Z,0.00
2023-01-10T19:20:07.508Z,0.00
2023-01-10T19:25:07.588Z,0.00
2023-01-10T19:30:07.414Z,0.00
2023-01-10T19:35:07.331Z,0.00
2023-01-10T19:40:07.443Z,0.00
2023-01-10T19:45:07.366Z,0.00
2023-01-10T19:50:07.162Z,0.00
2023-01-10T19:55:07.248Z,0.00
2023-01-10T20:00:07.065Z,0.00
2023-01-10T20:05:07.031Z,0.00
2023-01-10T20:10:07.055Z,0.00
2023-01-10T20:15:06.979Z,0.00
2023-01-10T20:20:06.927Z,0.00
2023-01-10T20:25:06.943Z,0.00
2023-01-10T20:30:06.752Z,0.00
2023-01-10T20:35:06.676Z,0.00
2023-01-10T20:40:06.776Z,0.00
2023-01-10T20:45:06.578Z,0.00
2023-01-10T20:50:06.660Z,0.00
2023-01-10T20:55:06.475Z,0.00
2023-01-10T21:00:06.448Z,0.00
2023-01-10T21:05:06.497Z,0.00
2023-01-10T21:10:06.427Z,0.00
2023-01-10T21:15:06.346Z,0.00
2023-01-10T21:20:06.215Z,0.00
2023-01-10T21:25:06.211Z,0.00
2023-01-10T21:30:06.083Z,0.00
2023-01-10T21:35:06.012Z,0.00
2023-01-10T21:40:06.033Z,0.00
2023-01-10T21:45:05.906Z,0.00
2023-01-10T21:50:05.851Z,0.00
2023-01-10T21:55:05.995Z,0.00
2023-01-10T22:00:05.767Z,0.00
2023-01-10T22:05:05.908Z,0.00
2023-01-10T22:10:05.816Z,0.00
2023-01-10T22:15:05.686Z,0.00
2023-01-10T22:20:05.525Z,0.00
2023-01-10T22:25:05.523Z,0.00
2023-01-10T22:30:05.419Z,0.00
2023-01-10T22:35:05.377Z,0.00
2023-01-10T22:40:06.446Z,0.00
2023-01-10T22:45:05.282Z,0.00
2023-01-10T22:50:05.219Z,0.00
2023-01-10T22:55:05.177Z,0.00
2023-01-10T23:00:05.087Z,0.00
2023-01-10T23:05:05.059Z,0.00
2023-01-10T23:10:04.969Z,0.00
2023-01-10T23:15:05.099Z,0.00
2023-01-10T23:20:05.982Z,0.00
2023-01-10T23:25:04.801Z,0.00
2023-01-10T23:30:04.765Z,0.00
2023-01-10T23:35:04.729Z,0.00
2023-01-10T23:40:04.676Z,0.00
2023-01-10T23:45:04.612Z,0.00
2023-01-10T23:50:04.543Z,0.00
2023-01-10T23:55:04.642Z,0.00
